Time;durP1;ratioP1;P1;durP2;ratioP2;P2;SDS_P1;SDS_P2;PMS_P1;PMS_P2;Temp;Humidity;BMP_temperature;BMP_pressure;BME280_temperature;BME280_humidity;BME280_pressure;Samples;Min_cycle;Max_cycle;Signal;HPM_P1;HPM_P2
2022/09/23 00:00:19;;;;;;;18.67;14.20;;;10.60;99.90;;;;;;5093493;28;20399;-66
2022/09/23 00:02:47;;;;;;;21.05;14.35;;;10.60;99.90;;;;;;5075004;28;20032;-66
2022/09/23 00:05:13;;;;;;;23.10;13.80;;;10.70;99.90;;;;;;5091722;28;20074;-66
2022/09/23 00:07:39;;;;;;;17.35;14.15;;;10.70;99.90;;;;;;5093065;28;20519;-66
2022/09/23 00:10:05;;;;;;;16.85;14.02;;;10.70;99.90;;;;;;5092951;28;20032;-66
2022/09/23 00:12:31;;;;;;;18.58;13.90;;;10.70;99.90;;;;;;5093114;28;20048;-66
2022/09/23 00:14:56;;;;;;;16.85;14.18;;;10.70;99.90;;;;;;5092786;28;20036;-66
2022/09/23 00:17:22;;;;;;;18.30;13.90;;;10.80;99.90;;;;;;5092828;28;20484;-66
2022/09/23 00:19:48;;;;;;;16.05;13.98;;;10.70;99.90;;;;;;5092979;28;20043;-66
2022/09/23 00:22:14;;;;;;;17.45;14.07;;;10.70;99.90;;;;;;5092875;28;20116;-66
2022/09/23 00:24:39;;;;;;;19.88;13.80;;;10.70;99.90;;;;;;5092867;28;20043;-66
2022/09/23 00:27:05;;;;;;;16.85;13.57;;;10.70;99.90;;;;;;5092707;28;20051;-66
2022/09/23 00:29:31;;;;;;;16.67;14.52;;;10.60;99.90;;;;;;5092832;28;20040;-66
2022/09/23 00:31:56;;;;;;;19.13;13.07;;;10.60;99.90;;;;;;5092666;28;20044;-66
2022/09/23 00:34:22;;;;;;;15.77;13.43;;;10.70;99.90;;;;;;5092181;28;20392;-66
2022/09/23 00:36:48;;;;;;;16.17;12.95;;;10.60;99.90;;;;;;5092669;28;20040;-66
2022/09/23 00:39:13;;;;;;;16.23;13.48;;;10.60;99.90;;;;;;5092372;28;20495;-66
2022/09/23 00:41:39;;;;;;;15.27;13.27;;;10.60;99.90;;;;;;5092716;28;20036;-66
2022/09/23 00:44:38;;;;;;;17.63;13.50;;;10.60;99.90;;;;;;5092308;28;20282;-66
2022/09/23 00:47:04;;;;;;;18.63;14.80;;;10.60;99.90;;;;;;5092469;28;20122;-66
2022/09/23 00:49:30;;;;;;;15.90;12.82;;;10.50;99.90;;;;;;5092299;28;20125;-66
2022/09/23 00:52:05;;;;;;;17.55;13.52;;;10.60;99.90;;;;;;5092153;28;20041;-66
2022/09/23 00:54:31;;;;;;;16.65;14.07;;;10.50;99.90;;;;;;5091911;28;20051;-66
2022/09/23 00:56:58;;;;;;;16.02;14.32;;;10.50;99.90;;;;;;5092350;28;20036;-66
2022/09/23 00:59:25;;;;;;;16.17;13.43;;;10.50;99.90;;;;;;5092307;28;20035;-66
2022/09/23 01:01:54;;;;;;;14.88;13.40;;;10.50;99.90;;;;;;5092090;28;20055;-66
2022/09/23 01:04:23;;;;;;;14.60;13.18;;;10.40;99.90;;;;;;5092032;28;20051;-66
2022/09/23 01:06:48;;;;;;;16.23;14.52;;;10.40;99.90;;;;;;5092256;28;20047;-66
2022/09/23 01:09:15;;;;;;;15.18;13.57;;;10.40;99.90;;;;;;5092203;28;20040;-66
2022/09/23 01:12:01;;;;;;;18.27;14.88;;;10.40;99.90;;;;;;5092054;28;20037;-66
2022/09/23 01:14:36;;;;;;;18.05;14.13;;;10.40;99.90;;;;;;5091590;28;20044;-66
2022/09/23 01:17:28;;;;;;;16.95;14.85;;;10.20;99.90;;;;;;5092202;28;20063;-66
2022/09/23 01:20:25;;;;;;;14.48;13.07;;;10.30;99.90;;;;;;5091606;28;20041;-66
2022/09/23 01:22:59;;;;;;;15.45;13.48;;;10.30;99.90;;;;;;5084178;28;20400;-66
2022/09/23 01:25:56;;;;;;;18.02;13.68;;;10.20;99.90;;;;;;5091653;28;20036;-66
2022/09/23 01:28:48;;;;;;;19.45;13.35;;;10.20;99.90;;;;;;5091990;28;20040;-66
2022/09/23 01:31:42;;;;;;;15.40;13.83;;;10.10;99.90;;;;;;5091803;28;20119;-66
2022/09/23 01:34:23;;;;;;;16.73;14.25;;;10.10;99.90;;;;;;5091616;28;20040;-66
2022/09/23 01:36:59;;;;;;;18.98;14.23;;;10.10;99.90;;;;;;5091821;28;20579;-66
2022/09/23 01:39:37;;;;;;;17.38;13.27;;;10.10;99.90;;;;;;5091636;28;20098;-66
2022/09/23 01:42:23;;;;;;;16.75;14.23;;;10.10;99.90;;;;;;5091987;28;20120;-66
2022/09/23 01:44:56;;;;;;;18.55;15.30;;;10.10;99.90;;;;;;5091399;28;20131;-66
2022/09/23 01:47:29;;;;;;;15.45;13.85;;;10.10;99.90;;;;;;5091828;28;20036;-66
2022/09/23 01:50:55;;;;;;;15.95;14.25;;;10.00;99.90;;;;;;5091651;28;20040;-66
2022/09/23 01:52:54;;;;;;;21.73;14.60;;;10.00;99.90;;;;;;5091501;28;20134;-66
2022/09/23 01:55:30;;;;;;;15.45;13.90;;;10.10;99.90;;;;;;5091291;28;20039;-66
2022/09/23 01:58:31;;;;;;;14.50;12.85;;;10.00;99.90;;;;;;5091664;28;20040;-66
2022/09/23 02:01:01;;;;;;;17.17;14.18;;;9.90;99.90;;;;;;5082128;28;20501;-66
2022/09/23 02:03:38;;;;;;;19.58;14.13;;;9.90;99.90;;;;;;5092282;28;20039;-66
2022/09/23 02:06:10;;;;;;;16.02;14.05;;;9.90;99.90;;;;;;5095330;28;20100;-66
2022/09/23 02:08:56;;;;;;;15.35;13.73;;;9.90;99.90;;;;;;5095370;28;20559;-66
2022/09/23 02:11:22;;;;;;;15.85;14.25;;;9.90;99.90;;;;;;5095496;28;20046;-66
2022/09/23 02:13:51;;;;;;;15.18;13.43;;;9.80;99.90;;;;;;5095130;28;20111;-66
2022/09/23 02:16:46;;;;;;;16.88;13.23;;;9.80;99.90;;;;;;5095345;28;20067;-66
2022/09/23 02:19:13;;;;;;;15.93;13.90;;;9.80;99.90;;;;;;5095215;28;20107;-66
2022/09/23 02:21:47;;;;;;;20.42;13.68;;;9.80;99.90;;;;;;5095337;28;20044;-66
2022/09/23 02:24:23;;;;;;;19.23;13.45;;;9.70;99.90;;;;;;5094987;28;20063;-66
2022/09/23 02:26:57;;;;;;;15.18;13.45;;;9.70;99.90;;;;;;5094939;28;20551;-66
2022/09/23 02:29:49;;;;;;;15.20;13.50;;;9.70;99.90;;;;;;5094964;28;20122;-66
2022/09/23 02:32:19;;;;;;;17.27;13.05;;;9.70;99.90;;;;;;5094959;28;20052;-66
2022/09/23 02:35:21;;;;;;;15.48;13.20;;;9.80;99.90;;;;;;5093374;28;20492;-66
2022/09/23 02:38:24;;;;;;;16.48;14.57;;;9.70;99.90;;;;;;5094849;28;20043;-66
2022/09/23 02:41:20;;;;;;;15.35;13.75;;;9.80;99.90;;;;;;5094911;28;20052;-66
2022/09/23 02:44:00;;;;;;;14.82;13.30;;;9.70;99.90;;;;;;5076455;28;20510;-66
2022/09/23 02:46:28;;;;;;;14.98;13.38;;;9.70;99.90;;;;;;5094958;28;20036;-66
2022/09/23 02:49:03;;;;;;;14.32;12.95;;;9.70;99.90;;;;;;5094842;28;20040;-66
2022/09/23 02:51:36;;;;;;;16.48;13.45;;;9.60;99.90;;;;;;5094679;28;20043;-66
2022/09/23 02:54:06;;;;;;;16.75;13.80;;;9.70;99.90;;;;;;5094272;28;20032;-66
2022/09/23 02:56:32;;;;;;;18.00;13.77;;;9.60;99.90;;;;;;5094494;28;20111;-66
2022/09/23 02:58:58;;;;;;;17.20;13.40;;;9.60;99.90;;;;;;5094642;28;20051;-66
2022/09/23 03:01:33;;;;;;;14.02;12.65;;;9.60;99.90;;;;;;5094664;28;20114;-66
2022/09/23 03:04:05;;;;;;;17.77;12.70;;;9.70;99.90;;;;;;5093068;28;20126;-66
2022/09/23 03:06:36;;;;;;;18.20;13.77;;;9.70;99.90;;;;;;5094306;28;20073;-66
2022/09/23 03:09:17;;;;;;;17.20;12.02;;;9.70;99.90;;;;;;5094284;28;20047;-66
2022/09/23 03:11:51;;;;;;;13.82;12.48;;;9.60;99.90;;;;;;5094357;28;20044;-66
2022/09/23 03:14:24;;;;;;;17.13;13.02;;;9.60;99.90;;;;;;5092668;28;20388;-66
2022/09/23 03:16:59;;;;;;;15.40;13.13;;;9.50;99.90;;;;;;5094206;28;20036;-66
2022/09/23 03:19:40;;;;;;;14.57;12.75;;;9.50;99.90;;;;;;5094169;28;20450;-66
2022/09/23 03:22:16;;;;;;;18.73;13.10;;;9.40;99.90;;;;;;5093961;28;20458;-66
2022/09/23 03:24:44;;;;;;;18.17;12.88;;;9.40;99.90;;;;;;5093825;28;20123;-66
2022/09/23 03:27:16;;;;;;;15.43;12.68;;;9.30;99.90;;;;;;5093808;28;20044;-66
2022/09/23 03:29:48;;;;;;;17.10;13.18;;;9.30;99.90;;;;;;5094002;28;20040;-66
2022/09/23 03:32:18;;;;;;;13.82;12.43;;;9.30;99.90;;;;;;5094206;28;20409;-66
2022/09/23 03:34:46;;;;;;;14.90;13.00;;;9.30;99.90;;;;;;5093659;28;20040;-66
2022/09/23 03:37:36;;;;;;;14.52;12.90;;;9.40;99.90;;;;;;5093903;28;20459;-66
2022/09/23 03:40:16;;;;;;;16.52;12.77;;;9.30;99.90;;;;;;5093757;28;20052;-66
2022/09/23 03:42:42;;;;;;;17.90;13.68;;;9.30;99.90;;;;;;5093798;28;20036;-66
2022/09/23 03:45:17;;;;;;;14.70;12.95;;;9.30;99.90;;;;;;5093505;28;20046;-66
2022/09/23 03:47:43;;;;;;;16.25;12.55;;;9.30;99.90;;;;;;5092270;28;20040;-66
2022/09/23 03:50:09;;;;;;;18.42;12.90;;;9.40;99.90;;;;;;5093614;28;20392;-66
2022/09/23 03:52:35;;;;;;;17.38;13.38;;;9.40;99.90;;;;;;5093436;28;20177;-66
2022/09/23 03:55:01;;;;;;;14.10;12.60;;;9.40;99.90;;;;;;5093000;28;20456;-66
2022/09/23 03:57:26;;;;;;;14.38;11.98;;;9.40;99.90;;;;;;5093544;28;20123;-66
2022/09/23 03:59:52;;;;;;;18.50;12.10;;;9.40;99.90;;;;;;5092067;28;20122;-66
2022/09/23 04:02:19;;;;;;;15.88;12.35;;;9.40;99.90;;;;;;5093425;28;20119;-66
2022/09/23 04:04:44;;;;;;;15.45;12.80;;;9.40;99.90;;;;;;5092890;28;20044;-66
2022/09/23 04:07:11;;;;;;;13.63;12.25;;;9.30;99.90;;;;;;5093287;28;20128;-66
2022/09/23 04:09:37;;;;;;;16.10;10.88;;;9.20;99.90;;;;;;5092932;28;20040;-66
2022/09/23 04:12:04;;;;;;;15.15;12.45;;;9.20;99.90;;;;;;5093174;28;20084;-66
2022/09/23 04:14:29;;;;;;;17.63;12.23;;;9.20;99.90;;;;;;5092789;28;20392;-66
2022/09/23 04:16:55;;;;;;;13.20;11.55;;;9.20;99.90;;;;;;5093117;28;20044;-66
2022/09/23 04:19:21;;;;;;;13.98;11.93;;;9.20;99.90;;;;;;5093058;28;20032;-66
2022/09/23 04:21:47;;;;;;;13.93;12.27;;;9.20;99.90;;;;;;5092930;28;20374;-66
2022/09/23 04:24:14;;;;;;;14.70;11.43;;;9.20;99.90;;;;;;5092449;28;20046;-66
2022/09/23 04:26:40;;;;;;;15.90;11.90;;;9.20;99.90;;;;;;5092417;28;20050;-66
2022/09/23 04:29:06;;;;;;;14.25;11.95;;;9.20;99.90;;;;;;5091880;28;20492;-66
2022/09/23 04:31:32;;;;;;;15.75;12.18;;;9.20;99.90;;;;;;5092809;28;20036;-66
2022/09/23 04:33:58;;;;;;;15.75;11.88;;;9.20;99.90;;;;;;5092484;28;20036;-66
2022/09/23 04:36:24;;;;;;;12.93;11.25;;;9.20;99.90;;;;;;5092624;28;20106;-66
2022/09/23 04:38:50;;;;;;;15.40;11.15;;;9.20;99.90;;;;;;5092520;28;20051;-66
2022/09/23 04:41:16;;;;;;;13.38;11.30;;;9.10;99.90;;;;;;5092649;28;20454;-66
2022/09/23 04:43:43;;;;;;;13.82;11.57;;;9.20;99.90;;;;;;5092388;28;20093;-66
2022/09/23 04:46:11;;;;;;;12.40;10.95;;;9.20;99.90;;;;;;5092279;28;20123;-66
2022/09/23 04:48:38;;;;;;;13.63;11.20;;;9.30;99.90;;;;;;5092443;28;20097;-66
2022/09/23 04:51:07;;;;;;;16.75;11.63;;;9.30;99.90;;;;;;5092275;28;20072;-66
2022/09/23 04:53:34;;;;;;;15.23;11.60;;;9.20;99.90;;;;;;5092192;28;20075;-66
2022/09/23 04:56:05;;;;;;;14.70;11.40;;;9.20;99.90;;;;;;5092203;28;20412;-66
2022/09/23 04:58:33;;;;;;;13.48;11.25;;;9.30;99.90;;;;;;5092186;28;20549;-66
2022/09/23 05:01:17;;;;;;;12.68;11.27;;;9.30;99.90;;;;;;5092371;28;20085;-66
2022/09/23 05:03:44;;;;;;;13.18;11.43;;;9.30;99.90;;;;;;5091860;28;20040;-66
2022/09/23 05:06:12;;;;;;;16.30;11.48;;;9.20;99.90;;;;;;5092411;28;20396;-66
2022/09/23 05:08:39;;;;;;;17.02;12.27;;;9.20;99.90;;;;;;5089680;28;20161;-66
2022/09/23 05:11:05;;;;;;;12.88;11.48;;;9.10;99.90;;;;;;5090971;28;20036;-66
2022/09/23 05:13:31;;;;;;;14.20;10.77;;;9.10;99.90;;;;;;5092211;28;20032;-66
2022/09/23 05:16:02;;;;;;;13.55;10.93;;;9.10;99.90;;;;;;5112117;28;20039;-66
2022/09/23 05:18:32;;;;;;;13.30;11.27;;;9.10;99.90;;;;;;5110293;28;20039;-66
2022/09/23 05:20:59;;;;;;;14.05;11.50;;;9.10;99.90;;;;;;5110044;28;20492;-66
2022/09/23 05:23:26;;;;;;;15.63;11.85;;;9.00;99.90;;;;;;5109044;28;20054;-66
2022/09/23 05:26:00;;;;;;;16.13;11.50;;;8.90;99.90;;;;;;5107831;28;20086;-66
2022/09/23 05:28:28;;;;;;;14.52;11.05;;;9.00;99.90;;;;;;5112248;28;20089;-66
2022/09/23 05:31:01;;;;;;;12.88;10.15;;;9.00;99.90;;;;;;5110672;28;20092;-67
2022/09/23 05:33:28;;;;;;;14.35;11.77;;;9.00;99.90;;;;;;5112350;28;20035;-66
2022/09/23 05:35:54;;;;;;;14.57;11.57;;;8.90;99.90;;;;;;5111829;28;20530;-66
2022/09/23 05:38:19;;;;;;;14.00;11.13;;;8.90;99.90;;;;;;5112643;28;20071;-66
2022/09/23 05:40:45;;;;;;;14.50;11.65;;;8.90;99.90;;;;;;5116343;28;20122;-66
2022/09/23 05:43:11;;;;;;;13.82;11.15;;;8.90;99.90;;;;;;5116292;28;20115;-66
2022/09/23 05:45:36;;;;;;;11.73;10.50;;;8.80;99.90;;;;;;5115890;28;20567;-66
2022/09/23 05:48:02;;;;;;;12.35;11.05;;;8.80;99.90;;;;;;5116387;28;20037;-66
2022/09/23 05:50:27;;;;;;;15.13;10.43;;;8.80;99.90;;;;;;5116389;28;20031;-66
2022/09/23 05:52:53;;;;;;;12.48;10.10;;;8.70;99.90;;;;;;5116146;28;20040;-66
2022/09/23 05:55:19;;;;;;;12.48;11.18;;;8.70;99.90;;;;;;5115805;28;20032;-66
2022/09/23 05:57:44;;;;;;;15.18;10.20;;;8.70;99.90;;;;;;5115979;28;20038;-67
2022/09/23 06:00:10;;;;;;;11.80;10.60;;;8.70;99.90;;;;;;5116297;28;20028;-66
2022/09/23 06:02:36;;;;;;;14.73;11.93;;;8.80;99.90;;;;;;5115942;28;20047;-66
2022/09/23 06:05:01;;;;;;;14.27;11.82;;;8.80;99.90;;;;;;5115713;28;20380;-66
2022/09/23 06:07:27;;;;;;;15.60;12.20;;;8.70;99.90;;;;;;5115932;28;20043;-66
2022/09/23 06:09:52;;;;;;;14.57;12.40;;;8.90;99.90;;;;;;5114503;28;20503;-66
2022/09/23 06:12:18;;;;;;;13.38;10.93;;;8.90;99.90;;;;;;5115688;28;20040;-66
2022/09/23 06:14:44;;;;;;;14.38;12.13;;;9.00;99.90;;;;;;5115572;28;20046;-66
2022/09/23 06:17:09;;;;;;;16.02;12.32;;;9.00;99.90;;;;;;5115922;28;20433;-66
2022/09/23 06:19:35;;;;;;;18.98;12.55;;;9.10;99.90;;;;;;5115775;28;20545;-66
2022/09/23 06:22:00;;;;;;;12.60;11.07;;;9.00;99.90;;;;;;5115644;28;20047;-66
2022/09/23 06:24:26;;;;;;;18.08;12.00;;;9.10;99.90;;;;;;5115217;28;20126;-66
2022/09/23 06:26:51;;;;;;;16.00;12.30;;;9.20;99.90;;;;;;5115428;28;20116;-66
2022/09/23 06:29:17;;;;;;;14.52;12.25;;;9.20;99.90;;;;;;5115373;28;20130;-67
2022/09/23 06:31:43;;;;;;;22.17;13.45;;;9.30;99.90;;;;;;5115388;28;20412;-66
2022/09/23 06:34:10;;;;;;;13.43;12.07;;;9.40;99.90;;;;;;5115155;27;20586;-67
2022/09/23 06:36:36;;;;;;;16.88;13.43;;;9.50;99.90;;;;;;5115562;28;20074;-66
2022/09/23 06:39:01;;;;;;;14.48;12.52;;;9.50;99.90;;;;;;5115191;28;20071;-66
2022/09/23 06:41:27;;;;;;;14.73;13.20;;;9.60;99.90;;;;;;5115219;28;20035;-67
2022/09/23 06:43:53;;;;;;;18.98;12.70;;;9.70;99.90;;;;;;5114776;28;20044;-67
2022/09/23 06:46:19;;;;;;;19.85;12.75;;;9.70;99.90;;;;;;5115285;28;20051;-67
2022/09/23 06:48:45;;;;;;;16.40;12.20;;;9.80;99.90;;;;;;5114701;28;20058;-67
2022/09/23 06:51:17;;;;;;;18.15;12.20;;;9.90;99.90;;;;;;5114396;28;20044;-67
2022/09/23 06:53:47;;;;;;;21.00;13.48;;;10.00;99.90;;;;;;5114938;28;20114;-67
2022/09/23 06:56:13;;;;;;;17.23;12.05;;;10.00;99.90;;;;;;5115102;28;20042;-67
2022/09/23 06:58:38;;;;;;;16.42;11.45;;;10.10;99.90;;;;;;5114987;28;20032;-67
2022/09/23 07:01:07;;;;;;;15.70;12.38;;;10.10;99.90;;;;;;5108596;28;20036;-66
2022/09/23 07:03:33;;;;;;;15.38;11.40;;;10.20;99.90;;;;;;5101547;28;20500;-67
2022/09/23 07:06:00;;;;;;;14.95;12.00;;;10.30;99.90;;;;;;5104981;28;20043;-67
2022/09/23 07:08:27;;;;;;;14.32;12.00;;;10.30;99.90;;;;;;5104095;28;20039;-67
2022/09/23 07:10:54;;;;;;;13.55;10.77;;;10.40;99.90;;;;;;5105010;28;20043;-66
2022/09/23 07:13:20;;;;;;;14.40;11.45;;;10.40;99.90;;;;;;5102877;28;20044;-67
2022/09/23 07:15:54;;;;;;;15.82;12.48;;;10.40;99.90;;;;;;5109484;28;20037;-67
2022/09/23 07:18:24;;;;;;;22.98;12.45;;;10.50;99.90;;;;;;5113104;28;20075;-67
2022/09/23 07:20:51;;;;;;;15.57;11.40;;;10.60;99.90;;;;;;5100383;28;20082;-68
2022/09/23 07:23:17;;;;;;;19.88;12.07;;;10.60;99.90;;;;;;5062238;28;20050;-67
2022/09/23 07:25:49;;;;;;;15.45;10.70;;;10.70;99.90;;;;;;5093796;28;20503;-67
2022/09/23 07:28:14;;;;;;;13.48;11.18;;;10.70;99.90;;;;;;5094033;28;20036;-67
2022/09/23 07:30:42;;;;;;;18.48;11.68;;;10.80;99.90;;;;;;5093733;28;20042;-67
2022/09/23 07:33:07;;;;;;;13.50;10.05;;;10.90;99.90;;;;;;5093994;28;20039;-68
2022/09/23 07:35:33;;;;;;;17.17;10.25;;;10.90;99.90;;;;;;5093614;28;20044;-68
2022/09/23 07:37:59;;;;;;;14.70;10.10;;;11.00;99.90;;;;;;5093747;28;20382;-68
2022/09/23 08:00:45;;;;;;;14.90;10.68;;;11.50;99.90;;;;;;5171561;27;20461;-66
2022/09/23 08:03:11;;;;;;;16.75;11.75;;;11.50;99.90;;;;;;5171628;27;20045;-67
2022/09/23 08:05:37;;;;;;;16.15;11.30;;;11.50;99.90;;;;;;5171104;27;20039;-67
2022/09/23 08:08:06;;;;;;;18.77;11.43;;;11.60;99.90;;;;;;5153039;27;20034;-67
2022/09/23 08:10:32;;;;;;;17.70;11.75;;;11.60;99.90;;;;;;5161436;27;20035;-67
2022/09/23 08:12:58;;;;;;;16.30;10.68;;;11.70;99.90;;;;;;5161393;27;20080;-67
2022/09/23 08:15:25;;;;;;;16.88;11.85;;;11.70;99.90;;;;;;5162031;27;20031;-67
2022/09/23 08:17:51;;;;;;;14.23;11.05;;;11.70;99.90;;;;;;5171327;27;20113;-67
2022/09/23 08:20:42;;;;;;;15.63;10.45;;;11.80;99.90;;;;;;5171012;27;20130;-67
2022/09/23 08:23:02;;;;;;;21.15;11.13;;;11.80;99.90;;;;;;5171150;27;20394;-67
2022/09/23 08:25:28;;;;;;;15.48;11.07;;;11.90;99.90;;;;;;5164625;27;20026;-67
2022/09/23 08:27:54;;;;;;;13.25;10.00;;;11.90;99.90;;;;;;5171204;27;20561;-67
2022/09/23 08:30:19;;;;;;;15.43;10.90;;;12.00;99.90;;;;;;5171084;27;20084;-68
2022/09/23 08:32:49;;;;;;;15.23;10.00;;;12.10;99.90;;;;;;5171095;27;20042;-67
2022/09/23 08:35:15;;;;;;;15.85;9.80;;;12.10;99.90;;;;;;5170498;27;20110;-68
2022/09/23 08:37:40;;;;;;;16.88;10.55;;;12.10;99.90;;;;;;5164376;27;20075;-68
2022/09/23 08:40:06;;;;;;;17.42;10.73;;;12.20;99.90;;;;;;5160229;27;20031;-67
2022/09/23 08:42:34;;;;;;;15.38;10.05;;;12.20;99.90;;;;;;5158304;27;20031;-67
2022/09/23 08:45:04;;;;;;;16.23;10.45;;;12.30;99.90;;;;;;5158960;27;20508;-68
2022/09/23 08:47:38;;;;;;;14.75;10.20;;;12.30;99.90;;;;;;5162547;27;20034;-67
2022/09/23 08:50:16;;;;;;;17.45;10.77;;;12.40;99.90;;;;;;5170062;27;20554;-67
2022/09/23 08:53:01;;;;;;;14.18;9.57;;;12.40;99.90;;;;;;5170709;27;20091;-68
2022/09/23 08:55:33;;;;;;;11.82;9.85;;;12.80;99.90;;;;;;5170545;27;20046;-68
2022/09/23 08:58:20;;;;;;;12.95;9.40;;;12.80;99.90;;;;;;5170714;27;20039;-69
2022/09/23 09:01:07;;;;;;;17.30;9.55;;;12.90;99.90;;;;;;5170507;27;20402;-68
2022/09/23 09:04:00;;;;;;;15.93;9.75;;;12.90;99.90;;;;;;5170590;27;20668;-68
2022/09/23 09:06:40;;;;;;;16.33;10.18;;;13.10;99.90;;;;;;5170440;27;20483;-68
2022/09/23 09:09:29;;;;;;;15.40;9.15;;;13.10;99.90;;;;;;5168962;27;20038;-68
2022/09/23 09:12:17;;;;;;;15.02;9.25;;;13.20;99.90;;;;;;5147321;27;20047;-68
2022/09/23 09:15:01;;;;;;;14.43;9.02;;;13.40;99.90;;;;;;5144731;27;20035;-68
2022/09/23 09:17:26;;;;;;;14.52;9.35;;;13.40;99.90;;;;;;5150323;27;20480;-68
2022/09/23 09:20:17;;;;;;;12.32;9.38;;;13.60;99.90;;;;;;5156382;27;20035;-68
2022/09/23 09:22:53;;;;;;;13.25;9.55;;;13.60;99.90;;;;;;5156444;27;20045;-68
2022/09/23 09:25:21;;;;;;;15.10;9.32;;;13.70;99.90;;;;;;5155902;27;20394;-68
2022/09/23 09:27:47;;;;;;;15.48;9.40;;;13.70;99.90;;;;;;5156044;27;20043;-68
2022/09/23 09:30:14;;;;;;;16.63;9.35;;;13.80;99.90;;;;;;5156061;27;20121;-68
2022/09/23 09:32:49;;;;;;;14.45;9.50;;;13.90;99.90;;;;;;5154797;27;20140;-68
2022/09/23 09:35:32;;;;;;;12.85;10.07;;;13.90;99.90;;;;;;5155535;27;20046;-68
2022/09/23 09:37:57;;;;;;;12.82;9.15;;;14.00;99.90;;;;;;5156039;27;20073;-68
2022/09/23 09:40:24;;;;;;;15.00;9.55;;;14.00;99.90;;;;;;5155739;27;20091;-68
2022/09/23 09:42:49;;;;;;;16.05;9.65;;;14.10;99.90;;;;;;5156191;27;20049;-68
2022/09/23 09:45:42;;;;;;;13.55;9.05;;;14.20;99.90;;;;;;5155418;27;20398;-67
2022/09/23 09:48:21;;;;;;;;;;;14.20;99.90;;;;;;5156238;27;20037;-69
2022/09/23 09:50:52;;;;;;;15.80;9.07;;;14.30;99.90;;;;;;5152936;27;20462;-68
2022/09/23 09:53:29;;;;;;;12.15;9.20;;;14.40;99.90;;;;;;5154406;27;20394;-68
2022/09/23 09:56:04;;;;;;;15.43;8.85;;;14.50;99.90;;;;;;5135362;27;20122;-68
2022/09/23 09:59:00;;;;;;;14.55;9.10;;;14.60;99.90;;;;;;5134422;27;20414;-68
2022/09/23 10:01:29;;;;;;;17.10;9.18;;;14.70;99.90;;;;;;5134928;27;20078;-68
2022/09/23 10:04:32;;;;;;;17.52;9.57;;;14.70;99.90;;;;;;5133042;27;20039;-68
2022/09/23 10:07:13;;;;;;;14.02;8.75;;;14.80;99.90;;;;;;5120557;27;20406;-68
2022/09/23 10:09:46;;;;;;;16.48;9.60;;;14.90;99.90;;;;;;5134437;27;20144;-68
2022/09/23 10:12:17;;;;;;;13.15;8.95;;;14.90;99.90;;;;;;5134565;27;20050;-68
2022/09/23 10:14:51;;;;;;;9.90;8.27;;;14.90;99.90;;;;;;5134071;27;20092;-68
2022/09/23 10:17:23;;;;;;;12.23;8.02;;;14.90;99.90;;;;;;5134575;27;20050;-68
2022/09/23 10:19:59;;;;;;;12.55;8.85;;;14.90;99.90;;;;;;5134325;27;20398;-68
2022/09/23 10:22:30;;;;;;;16.65;9.20;;;15.00;99.90;;;;;;5132176;27;20047;-69
2022/09/23 10:25:02;;;;;;;13.30;8.55;;;15.00;99.90;;;;;;5133669;27;20042;-68
2022/09/23 10:27:34;;;;;;;15.57;8.82;;;15.00;99.90;;;;;;5134204;27;20502;-68
2022/09/23 10:30:22;;;;;;;14.52;9.02;;;15.00;99.90;;;;;;5133244;27;20061;-69
2022/09/23 10:32:49;;;;;;;10.90;8.52;;;15.00;99.90;;;;;;5132544;27;20398;-68
2022/09/23 10:35:17;;;;;;;11.40;8.57;;;14.90;99.90;;;;;;5133816;27;20049;-68
2022/09/23 10:37:49;;;;;;;14.80;8.68;;;15.00;99.90;;;;;;5132747;27;20079;-68
2022/09/23 10:46:44;;;;;;;16.23;9.85;;;15.00;99.90;;;;;;5133722;27;20053;-69
2022/09/23 10:49:25;;;;;;;17.83;9.95;;;15.00;99.90;;;;;;5133673;27;20526;-69
2022/09/23 10:52:18;;;;;;;14.10;8.75;;;15.00;99.90;;;;;;5132596;27;20070;-69
2022/09/23 10:54:47;;;;;;;13.13;9.10;;;15.10;99.90;;;;;;5133256;27;20130;-68
2022/09/23 10:57:45;;;;;;;15.95;8.85;;;15.10;99.90;;;;;;5133625;27;20087;-68
2022/09/23 11:00:22;;;;;;;13.57;8.65;;;15.10;99.90;;;;;;5133498;27;20078;-68
2022/09/23 11:03:28;;;;;;;16.20;8.88;;;15.10;99.90;;;;;;5133726;27;20035;-67
2022/09/23 11:06:02;;;;;;;15.75;8.68;;;15.20;99.90;;;;;;5141028;27;20030;-67
2022/09/23 11:08:31;;;;;;;12.43;9.48;;;15.20;99.90;;;;;;5144415;27;20046;-67
2022/09/23 11:11:19;;;;;;;11.60;9.27;;;15.20;99.90;;;;;;5141208;27;20333;-66
2022/09/23 11:14:14;;;;;;;10.60;8.30;;;15.30;99.90;;;;;;5143429;27;20043;-67
2022/09/23 11:16:59;;;;;;;13.85;9.55;;;15.30;99.90;;;;;;5137029;27;20035;-66
2022/09/23 11:19:32;;;;;;;11.85;9.13;;;15.30;99.90;;;;;;5135161;27;20035;-67
2022/09/23 11:22:36;;;;;;;11.85;8.63;;;15.30;99.90;;;;;;5136149;27;20054;-67
2022/09/23 11:25:12;;;;;;;10.65;8.88;;;15.40;99.90;;;;;;5106084;27;20075;-67
2022/09/23 11:27:46;;;;;;;15.65;8.93;;;15.40;99.90;;;;;;5133829;27;20490;-68
2022/09/23 11:30:18;;;;;;;15.88;9.13;;;15.40;99.90;;;;;;5139751;27;20034;-67
2022/09/23 11:33:05;;;;;;;14.63;9.77;;;15.40;99.90;;;;;;5135492;27;20046;-66
2022/09/23 11:35:41;;;;;;;11.77;8.77;;;15.40;99.90;;;;;;5132384;27;20046;-66
2022/09/23 11:38:17;;;;;;;12.98;8.88;;;15.40;99.90;;;;;;5131718;27;20047;-67
2022/09/23 11:40:47;;;;;;;16.05;9.07;;;15.40;99.90;;;;;;5132832;27;20483;-66
2022/09/23 11:43:27;;;;;;;11.90;9.60;;;15.40;99.90;;;;;;5132986;27;20038;-66
2022/09/23 11:46:22;;;;;;;13.85;9.60;;;15.40;99.90;;;;;;5132774;27;20411;-66
2022/09/23 11:49:18;;;;;;;14.15;10.27;;;15.40;99.90;;;;;;5132875;27;20031;-67
2022/09/23 11:52:04;;;;;;;13.63;10.30;;;15.40;99.90;;;;;;5132936;27;20043;-66
2022/09/23 11:54:41;;;;;;;14.18;9.25;;;15.40;99.90;;;;;;5131562;27;20402;-66
2022/09/23 11:57:17;;;;;;;14.98;10.00;;;15.40;99.90;;;;;;5131382;27;20042;-67
2022/09/23 11:59:50;;;;;;;12.63;9.45;;;15.40;99.90;;;;;;5134571;27;20403;-67
2022/09/23 12:02:32;;;;;;;;;;;15.40;99.90;;;;;;5142203;27;20491;-67
2022/09/23 12:05:19;;;;;;;12.93;9.88;;;15.40;99.90;;;;;;5139753;27;19915;-66
2022/09/23 12:08:06;;;;;;;13.40;9.70;;;15.50;99.90;;;;;;5132576;27;20031;-66
2022/09/23 12:10:54;;;;;;;14.27;9.57;;;15.50;99.90;;;;;;5132724;27;20040;-67
2022/09/23 12:13:32;;;;;;;15.18;9.52;;;15.50;99.90;;;;;;5131649;27;20118;-67
2022/09/23 12:16:26;;;;;;;10.93;8.88;;;15.60;99.90;;;;;;5131845;27;20042;-66
2022/09/23 12:19:18;;;;;;;13.13;9.57;;;15.60;99.90;;;;;;5132577;27;20038;-67
2022/09/23 12:22:12;;;;;;;15.15;9.82;;;15.60;99.90;;;;;;5132698;27;20035;-67
2022/09/23 12:24:56;;;;;;;12.88;8.77;;;15.60;99.90;;;;;;5132032;27;20039;-67
2022/09/23 12:27:45;;;;;;;13.88;9.23;;;15.60;99.90;;;;;;5132492;27;20042;-67
2022/09/23 12:30:23;;;;;;;11.93;8.85;;;15.70;99.90;;;;;;5132443;27;20035;-67
2022/09/23 12:32:49;;;;;;;12.00;8.82;;;15.70;99.90;;;;;;5132684;27;20049;-67
2022/09/23 12:35:20;;;;;;;13.23;9.50;;;15.70;99.90;;;;;;5132181;27;20039;-67
2022/09/23 12:37:46;;;;;;;15.97;9.33;;;15.70;99.90;;;;;;5132450;27;20061;-67
2022/09/23 12:40:29;;;;;;;16.83;9.95;;;15.70;99.90;;;;;;5132264;27;20039;-67
2022/09/23 12:42:54;;;;;;;;;;;15.70;99.90;;;;;;5132733;27;20043;-67
2022/09/23 12:45:31;;;;;;;13.20;9.05;;;15.70;99.90;;;;;;5132272;27;20295;-67
2022/09/23 12:48:21;;;;;;;14.60;9.95;;;15.80;99.90;;;;;;5136155;27;20568;-67
2022/09/23 12:51:02;;;;;;;12.13;9.02;;;15.80;99.90;;;;;;5136025;27;20445;-66
2022/09/23 12:53:33;;;;;;;13.15;8.90;;;15.80;99.90;;;;;;5135965;27;20039;-66
2022/09/23 12:56:01;;;;;;;16.50;10.30;;;15.80;99.90;;;;;;5135796;27;20042;-67
2022/09/23 12:58:41;;;;;;;11.57;9.35;;;15.80;99.90;;;;;;5135891;27;20276;-67
2022/09/23 13:01:19;;;;;;;14.93;9.80;;;15.80;99.90;;;;;;5136037;27;20088;-66
2022/09/23 13:07:03;;;;;;;13.02;8.80;;;15.80;99.90;;;;;;5135818;27;20499;-66
2022/09/23 13:09:31;;;;;;;15.20;8.88;;;15.80;99.90;;;;;;5135820;27;20325;-67
2022/09/23 13:12:00;;;;;;;11.85;8.82;;;15.80;99.90;;;;;;5135609;27;20533;-67
2022/09/23 13:14:28;;;;;;;16.50;8.77;;;15.80;99.90;;;;;;5134987;27;20115;-67
2022/09/23 13:16:57;;;;;;;12.75;9.43;;;15.80;99.90;;;;;;5135804;27;20047;-67
2022/09/23 13:19:25;;;;;;;12.20;8.80;;;15.90;99.90;;;;;;5135512;27;20043;-66
2022/09/23 13:22:07;;;;;;;14.88;9.18;;;15.80;99.90;;;;;;5135404;27;20124;-66
2022/09/23 13:24:46;;;;;;;13.95;9.57;;;15.90;99.90;;;;;;5134780;27;20437;-66
2022/09/23 13:27:22;;;;;;;14.60;9.38;;;15.90;99.90;;;;;;5142534;27;20035;-67
2022/09/23 13:30:16;;;;;;;16.88;9.48;;;15.90;99.90;;;;;;5144250;27;20035;-67
2022/09/23 13:32:50;;;;;;;11.60;8.88;;;16.00;99.90;;;;;;5145850;27;20092;-67
2022/09/23 13:35:28;;;;;;;11.82;9.18;;;15.90;99.90;;;;;;5153048;27;20299;-67